WEATHER DATA

YESTERDAY
Time Temp. Dewp. Hum. Bar. 1h Prec. 24h Prec.
00:00 5.8 0.2 67 1024.5 0.0000 0.0000
00:11 6 0.3 67 1024.4 0.0000 0.0000
00:21 6.1 0.2 66 1024.1 0.0000 0.0000
00:31 6.3 0.4 66 1023.8 0.0000 0.0000
00:41 6.4 0.3 65 1023.8 0.0000 0.0000
00:52 6.4 0.3 65 1023.7 0.0000 0.0000
01:01 6.4 0.3 65 1023.6 0.0000 0.0000
01:11 6.3 0.2 65 1023.5 0.0000 0.0000
01:22 6.3 0.2 65 1023.2 0.0000 0.0000
01:32 6.3 0.2 65 1023.1 0.0000 0.0000
01:42 6.2 0.3 66 1023 0.0000 0.0000
01:52 6.1 0.2 66 1022.9 0.0000 0.0000
02:02 6.1 0.2 66 1022.8 0.0000 0.0000
02:12 6.2 0.5 67 1022.6 0.0000 0.0000
02:22 6.4 0.5 66 1022.5 0.0000 0.0000
02:33 6.4 0.5 66 1022.4 0.0000 0.0000
02:42 6.4 0.5 66 1022.4 0.0000 0.0000
02:52 6.4 0.7 67 1022.4 0.0000 0.0000
03:02 6.4 0.7 67 1022.5 0.0000 0.0000
03:13 6.1 0.8 69 1022.3 0.0000 0.0000
03:23 6 1 70 1022.1 0.0000 0.0000
03:32 5.9 1.1 71 1021.9 0.0000 0.0000
03:43 5.9 1.1 71 1022 0.1010 0.1000
03:50 5.8 1.3 73 1022.3 0.3030 0.3000
04:01 5.4 1.3 75 1021.8 0.4040 0.4000
04:11 5.5 1.4 75 1021.6 0.4040 0.4000
04:21 5.6 1.5 75 1021.4 0.4040 0.4000
04:30 5.7 1.4 74 1021.2 0.4040 0.4000
04:41 5.8 1.5 74 1021.2 0.3030 0.4000
04:51 5.8 1.5 74 1021.1 0.0000 0.4000
05:01 5.7 1.4 74 1021 0.0000 0.4000
05:11 5.7 1.4 74 1020.9 0.0000 0.4000
05:21 5.7 1.2 73 1020.7 0.0000 0.4000
05:31 5.6 1.1 73 1020.8 0.0000 0.4000
05:41 5.6 1.1 73 1020.8 0.0000 0.4000
05:52 5.7 1.2 73 1020.8 0.0000 0.4000
06:02 5.8 1.1 72 1020.8 0.0000 0.4000
06:11 5.8 1.1 72 1020.5 0.1010 0.5000
06:22 5.8 1 71 1020.3 0.1010 0.5000
06:32 5.7 0.9 71 1020.3 0.1010 0.5000
06:42 5.7 0.9 71 1020.1 0.1010 0.5000
06:52 5.5 0.9 72 1019.7 0.1010 0.5000
07:03 5.3 1.2 75 1019.9 0.1010 0.5000
07:12 5.2 1.3 76 1019.7 0.0000 0.5000
07:22 5 1.3 77 1019.8 0.0000 0.5000
07:32 5 1.5 78 1019.5 0.1010 0.6000
07:43 5.1 1.8 79 1019.6 0.1010 0.6000
07:53 5.2 1.9 79 1019.9 0.1010 0.6000
08:02 5.2 1.9 79 1019.7 0.1010 0.6000
08:13 5.3 1.8 78 1019.9 0.1010 0.6000
08:23 5.4 1.9 78 1020 0.1010 0.6000
08:33 5.5 2 78 1020.2 0.1010 0.7000
08:43 5.6 1.9 77 1020.2 0.1010 0.7000
08:53 5.7 2 77 1020.3 0.1010 0.7000
09:03 5.9 2 76 1020.5 0.1010 0.7000
09:13 5.9 2 76 1020.5 0.1010 0.7000
09:24 5.7 1.8 76 1020.5 0.1010 0.7000
09:34 5.7 2 77 1020.9 0.0000 0.7000
09:43 5.8 2.1 77 1021.1 0.0000 0.7000
09:54 5.6 1.9 77 1021.3 0.1010 0.8000
10:04 5.2 1.5 77 1021.3 0.2020 0.9000
10:14 5.2 1.7 78 1021.6 0.2020 0.9000
10:21 5.2 1.9 79 1021.7 0.3030 1.0000
10:31 5 1.7 79 1021.9 0.5050 1.2000
10:41 4.9 1.7 80 1022.1 0.7070 1.4000
10:51 4.7 1.5 80 1022.2 0.7070 1.5000
11:02 4.8 1.8 81 1022.3 0.6060 1.5000
11:11 4.9 1.9 81 1022.5 0.7070 1.6000
11:22 4.9 1.9 81 1022.4 0.5050 1.6000
11:32 4.9 1.9 81 1022.7 0.3030 1.6000
11:42 4.9 1.9 81 1022.8 0.2020 1.6000
11:52 5 2 81 1022.8 0.1010 1.6000
12:02 5.2 2.2 81 1022.7 0.0000 1.6000
12:12 5.5 2.3 80 1022.6 0.0000 1.6000
12:22 6 2.8 80 1022.6 0.0000 1.6000
12:32 6.3 2.8 78 1022.8 0.0000 1.6000
12:43 6 2.1 76 1022.9 0.0000 1.6000
12:52 6 2.1 76 1023 0.0000 1.6000
13:02 6.1 1.8 74 1023 0.0000 1.6000
13:13 6.1 1.4 72 1023.1 0.0000 1.6000
13:23 5.8 0.8 70 1023.1 0.0000 1.6000
13:33 5.9 1.1 71 1023.3 0.0000 1.6000
13:43 6 1.1 71 1023.3 0.0000 1.6000
13:53 6.1 1 70 1023.3 0.0000 1.6000
14:03 5.9 0.9 70 1023.3 0.0000 1.6000
14:13 6 1 70 1023.3 0.0000 1.6000
14:23 6.2 0.9 69 1023.2 0.0000 1.6000
14:34 6.5 1.2 69 1023.2 0.0000 1.6000
14:43 6.7 1 67 1023.3 0.0000 1.6000
14:53 6.8 1.1 67 1023.4 0.0000 1.6000
15:04 6.6 0.7 66 1023.4 0.0000 1.6000
15:14 6.6 0.7 66 1023.4 0.0000 1.6000
15:24 6.6 0.9 67 1023.4 0.0000 1.6000
15:34 6.5 0.6 66 1023.5 0.0000 1.6000
15:44 6.5 0.6 66 1023.5 0.0000 1.6000
15:54 6.5 0.6 66 1023.7 0.0000 1.6000
16:04 6.4 0.7 67 1024 0.0000 1.6000
16:15 6.4 0.7 67 1023.8 0.0000 1.6000
16:24 6.5 0.6 66 1024 0.0000 1.6000
16:34 6.4 0.5 66 1024.1 0.0000 1.6000
16:44 6.4 0.5 66 1024.1 0.0000 1.6000
16:55 6.3 0.6 67 1024.1 0.0000 1.6000
17:05 6.2 0.5 67 1024.1 0.0000 1.6000
17:14 6.1 0.4 67 1024.2 0.0000 1.6000
17:25 6 0.3 67 1024.3 0.0000 1.6000
17:35 5.9 0.2 67 1024.3 0.0000 1.6000
17:45 5.8 0 66 1024.5 0.0000 1.6000
17:55 5.7 -0.3 65 1024.5 0.0000 1.6000
18:06 5.6 -0.4 65 1024.7 0.0000 1.6000
18:15 5.5 -0.5 65 1024.8 0.0000 1.6000
18:25 5.4 -0.6 65 1024.9 0.0000 1.6000
18:35 5.3 -0.7 65 1025 0.0000 1.6000
18:46 5.2 -0.7 65 1025 0.0000 1.6000
18:56 5.1 -0.6 66 1025.1 0.0000 1.6000
19:05 5 -0.7 66 1025.1 0.0000 1.6000
19:16 4.9 -0.6 67 1025.2 0.0000 1.6000
19:26 4.8 -0.5 68 1025.1 0.0000 1.6000
19:36 5 -0.4 68 1025.2 0.0000 1.6000
19:46 5 -0.2 69 1025.2 0.0000 1.6000
19:56 4.9 -0.3 69 1025.2 0.0000 1.6000
20:06 4.9 -0.3 69 1025.3 0.0000 1.6000
20:16 4.9 -0.3 69 1025.2 0.0000 1.6000
20:27 4.9 -0.3 69 1025.3 0.0000 1.6000
20:37 4.9 -0.1 70 1025.3 0.0000 1.6000
20:46 4.8 -0.2 70 1025.3 0.0000 1.6000
20:57 4.7 -0.3 70 1025.4 0.0000 1.6000
21:07 4.6 -0.3 70 1025.3 0.0000 1.6000
21:17 4.6 -0.2 71 1025.4 0.0000 1.6000
21:27 4.6 -0.2 71 1025.4 0.0000 1.6000
21:38 4.6 -0.2 71 1025.3 0.0000 1.6000
21:47 4.6 0 72 1025.2 0.0000 1.6000
21:57 4.5 -0.1 72 1025.1 0.0000 1.6000
22:07 4.5 -0.1 72 1025.1 0.0000 1.6000
22:18 4.5 -0.1 72 1025.1 0.0000 1.6000
22:28 4.4 -0.2 72 1025.1 0.0000 1.6000
22:37 4.4 0 73 1025 0.0000 1.6000
22:48 4.5 0.1 73 1024.9 0.0000 1.6000
22:58 4.9 0.5 73 1024.9 0.0000 1.6000
23:08 5.2 0.6 72 1024.8 0.0000 1.6000
23:18 5.3 0.5 71 1024.8 0.0000 1.6000
23:28 5.3 0.5 71 1024.7 0.0000 1.6000
23:38 5.4 0.6 71 1024.5 0.0000 1.6000
23:48 5.3 0.5 71 1024.5 0.0000 1.6000

DAY STATISTIC

2020-02-19
TEMPERATURE
AVERAGE
5.6
HIGH
6.8
14:53
LOW
4.4
22:28
PRESSURE
AVERAGE
1022.9
HIGH
1025.4
20:57
LOW
1019.5
07:32
DEWPOINT
AVERAGE
0.8
HIGH
2.8
12:22
LOW
-0.7
18:35
HUMIDITY
AVERAGE
71
HIGH
81
11:02
LOW
65
00:41
PRECIPITATION
RAIN HOUR
0.7
RAIN DAY
1.6
TEMPERATURE (°C)
LOW
4.4
HIGH
6.8
AVERAGE
5.6
PRESSURE (hpa)
LOW
1019.5
HIGH
1025.4
AVERAGE
1022.9
DEVICE